Time,TemperatureF,DewpointF,PressureIn,WindDirection,WindDirectionDegrees,WindSpeedMPH,WindSpeedGustMPH,Humidity,HourlyPrecipIn,Conditions,Clouds,dailyrainin,SoftwareType,DateUTC
2013-06-22 09:43:00,56.0,47.0,-100.00,ESE,123,13.0,19.0,74,0.00,,,-99.99,,2013-06-22 15:43:00,
2013-06-22 10:02:00,57.0,47.0,-100.00,SE,128,13.0,21.0,69,0.00,,,-99.99,,2013-06-22 16:02:00,
2013-06-22 10:34:00,57.0,45.0,-100.00,South,175,12.0,18.0,64,0.00,,,-99.99,,2013-06-22 16:34:00,
2013-06-22 10:43:00,59.0,48.0,-100.00,South,175,12.0,19.0,67,0.00,,,-99.99,,2013-06-22 16:43:00,
2013-06-22 11:43:00,62.0,42.0,-100.00,South,175,12.0,18.0,48,0.00,,,-99.99,,2013-06-22 17:43:00,
2013-06-22 12:02:00,63.0,46.0,-100.00,South,175,13.0,20.0,53,0.00,,,-99.99,,2013-06-22 18:02:00,
2013-06-22 12:43:00,65.0,45.0,-100.00,South,175,13.0,21.0,49,0.00,,,-99.99,,2013-06-22 18:43:00,
2013-06-22 13:43:00,65.0,44.0,-100.00,South,175,17.0,21.0,46,0.00,,,-99.99,,2013-06-22 19:43:00,
2013-06-22 14:33:00,65.0,42.0,-100.00,South,175,17.0,23.0,43,0.00,,,-99.99,,2013-06-22 20:33:00,
2013-06-22 14:43:00,64.0,43.0,-100.00,South,175,18.0,24.0,46,0.00,,,-99.99,,2013-06-22 20:43:00,
2013-06-22 14:53:00,64.0,43.0,-100.00,South,175,17.0,25.0,46,0.00,,,-99.99,,2013-06-22 20:53:00,
2013-06-22 15:43:00,66.0,38.0,-100.00,South,175,17.0,24.0,35,0.00,,,-99.99,,2013-06-22 21:43:00,
2013-06-22 16:43:00,64.0,35.0,-100.00,South,174,14.0,19.0,34,0.00,,,-99.99,,2013-06-22 22:43:00,
2013-06-22 17:01:00,65.0,34.0,-100.00,South,175,8.0,15.0,31,0.00,,,-99.99,,2013-06-22 23:01:00,
2013-06-22 17:43:00,65.0,23.0,-100.00,South,176,21.0,38.0,20,0.00,,,-99.99,,2013-06-22 23:43:00,
2013-06-22 17:52:00,65.0,23.0,-100.00,South,191,17.0,32.0,20,0.00,,,-99.99,,2013-06-22 23:52:00,
2013-06-22 18:33:00,66.0,22.0,-100.00,South,191,20.0,29.0,19,0.00,,,-99.99,,2013-06-23 00:33:00,
2013-06-22 18:42:00,67.0,21.0,-100.00,South,191,19.0,26.0,17,0.00,,,-99.99,,2013-06-23 00:42:00,
2013-06-22 18:52:00,66.0,20.0,-100.00,South,191,18.0,26.0,17,0.00,,,-99.99,,2013-06-23 00:52:00,
2013-06-22 19:01:00,65.0,20.0,-100.00,South,191,11.0,20.0,18,0.00,,,-99.99,,2013-06-23 01:01:00,
2013-06-22 19:11:00,64.0,26.0,-100.00,South,191,13.0,22.0,23,0.00,,,-99.99,,2013-06-23 01:11:00,
2013-06-22 19:32:00,62.0,23.0,-100.00,South,189,19.0,27.0,22,0.00,,,-99.99,,2013-06-23 01:32:00,
2013-06-22 19:42:00,61.0,26.0,-100.00,South,191,21.0,30.0,26,0.00,,,-99.99,,2013-06-23 01:42:00,
2013-06-22 19:52:00,60.0,26.0,-100.00,South,191,19.0,27.0,28,0.00,,,-99.99,,2013-06-23 01:52:00,
2013-06-22 20:01:00,59.0,26.0,-100.00,South,191,15.0,27.0,29,0.00,,,-99.99,,2013-06-23 02:01:00,
2013-06-22 20:11:00,58.0,25.0,-100.00,South,191,14.0,21.0,28,0.00,,,-99.99,,2013-06-23 02:11:00,
2013-06-22 20:21:00,57.0,25.0,-100.00,South,191,12.0,19.0,29,0.00,,,-99.99,,2013-06-23 02:21:00,
2013-06-22 20:31:00,57.0,24.0,-100.00,South,191,9.0,14.0,29,0.00,,,-99.99,,2013-06-23 02:31:00,
2013-06-22 20:41:00,57.0,24.0,-100.00,SW,227,9.0,16.0,28,0.00,,,-99.99,,2013-06-23 02:41:00,
2013-06-22 20:52:00,56.0,24.0,-100.00,WSW,257,6.0,9.0,29,0.00,,,-99.99,,2013-06-23 02:52:00,
2013-06-22 21:01:00,56.0,24.0,-100.00,West,267,5.0,9.0,28,0.00,,,-99.99,,2013-06-23 03:01:00,
2013-06-22 21:11:00,56.0,24.0,-100.00,WNW,298,2.0,6.0,29,0.00,,,-99.99,,2013-06-23 03:11:00,
2013-06-22 21:21:00,56.0,24.0,-100.00,NNW,342,2.0,6.0,29,0.00,,,-99.99,,2013-06-23 03:21:00,
2013-06-22 21:41:00,51.0,40.0,-100.00,North,354,4.0,12.0,67,0.00,,,-99.99,,2013-06-23 03:41:00,
2013-06-22 21:51:00,49.0,44.0,-100.00,NNE,30,7.0,13.0,83,0.00,,,-99.99,,2013-06-23 03:51:00,
2013-06-22 22:01:00,48.0,44.0,-100.00,NE,34,7.0,11.0,85,0.00,,,-99.99,,2013-06-23 04:01:00,
2013-06-22 22:11:00,48.0,44.0,-100.00,NNE,23,6.0,10.0,87,0.00,,,-99.99,,2013-06-23 04:11:00,
2013-06-22 22:21:00,47.0,44.0,-100.00,North,360,7.0,11.0,86,0.00,,,-99.99,,2013-06-23 04:21:00,
2013-06-22 22:31:00,48.0,43.0,-100.00,North,349,9.0,11.0,84,0.00,,,-99.99,,2013-06-23 04:31:00,
2013-06-22 22:42:00,49.0,40.0,-100.00,NNW,343,8.0,11.0,72,0.00,,,-99.99,,2013-06-23 04:42:00,
2013-06-22 22:52:00,52.0,35.0,-100.00,NNW,337,9.0,11.0,53,0.00,,,-99.99,,2013-06-23 04:52:00,
2013-06-22 23:41:00,51.0,31.0,-100.00,NW,312,10.0,15.0,46,0.00,,,-99.99,,2013-06-23 05:41:00,
2013-06-22 23:51:00,51.0,31.0,-100.00,WNW,302,12.0,17.0,46,0.00,,,-99.99,,2013-06-23 05:51:00,